createdAt,value
2018-08-19T00:00:10.976Z,30.8
2018-08-19T00:01:12.591Z,31.3
2018-08-19T00:02:14.076Z,30.8
2018-08-19T00:03:15.526Z,30.8
2018-08-19T00:04:16.804Z,30.8
2018-08-19T00:05:18.423Z,31.3
2018-08-19T00:06:19.855Z,31.3
2018-08-19T00:07:21.299Z,30.3
2018-08-19T00:08:22.907Z,30.8
2018-08-19T00:09:24.333Z,30.8
2018-08-19T00:10:25.923Z,30.3
2018-08-19T00:11:27.531Z,30.8
2018-08-19T00:12:28.966Z,30.8
2018-08-19T00:13:30.401Z,30.8
2018-08-19T00:14:31.835Z,30.3
2018-08-19T00:15:33.435Z,31.3
2018-08-19T00:16:35.017Z,30.8
2018-08-19T00:17:36.444Z,30.8
2018-08-19T00:18:38.067Z,30.8
2018-08-19T00:19:39.677Z,30.3
2018-08-19T00:20:41.293Z,30.3
2018-08-19T00:21:42.834Z,30.8
2018-08-19T00:22:44.333Z,30.3
2018-08-19T00:23:45.955Z,30.8
2018-08-19T00:24:47.414Z,30.3
2018-08-19T00:25:49.022Z,30.8
2018-08-19T00:26:50.623Z,30.3
2018-08-19T00:27:51.875Z,30.3
2018-08-19T00:28:53.475Z,30.8
2018-08-19T00:29:54.754Z,30.3
2018-08-19T00:30:56.360Z,30.3
2018-08-19T00:31:57.988Z,30.3
2018-08-19T00:32:59.434Z,31.3
2018-08-19T00:34:00.857Z,30.8
2018-08-19T00:35:02.313Z,30.8
2018-08-19T00:36:03.753Z,30.8
2018-08-19T00:37:05.364Z,30.3
2018-08-19T00:38:06.830Z,31.3
2018-08-19T00:39:08.276Z,30.8
2018-08-19T00:40:09.540Z,30.8
2018-08-19T00:41:10.974Z,30.3
2018-08-19T00:42:12.568Z,30.8
2018-08-19T00:43:14.016Z,30.8
2018-08-19T00:44:15.611Z,30.8
2018-08-19T00:45:17.213Z,29.8
2018-08-19T00:46:18.489Z,30.3
2018-08-19T00:47:20.093Z,30.3
2018-08-19T00:48:21.679Z,30.3
2018-08-19T00:49:23.107Z,29.8
2018-08-19T00:50:24.727Z,30.3
2018-08-19T00:51:26.324Z,30.8
2018-08-19T00:52:27.821Z,30.8
2018-08-19T00:53:29.439Z,30.3
2018-08-19T00:54:31.033Z,30.3
2018-08-19T00:55:32.650Z,29.8
2018-08-19T00:56:34.103Z,30.3
2018-08-19T00:57:35.753Z,29.8
2018-08-19T00:58:37.368Z,30.3
2018-08-19T00:59:38.816Z,30.3
2018-08-19T01:00:40.250Z,30.3
2018-08-19T01:01:41.530Z,30.3
2018-08-19T01:02:43.130Z,30.3
2018-08-19T01:03:44.580Z,30.3
2018-08-19T01:04:46.170Z,30.3
2018-08-19T01:05:47.791Z,30.3
2018-08-19T01:06:49.068Z,29.8
2018-08-19T01:07:50.515Z,30.3
2018-08-19T01:08:51.954Z,30.3
2018-08-19T01:09:53.245Z,30.8
2018-08-19T01:10:54.685Z,30.3
2018-08-19T01:11:56.136Z,30.3
2018-08-19T01:12:57.733Z,30.3
2018-08-19T01:13:59.333Z,30.3
2018-08-19T01:15:00.944Z,30.8
2018-08-19T01:16:02.395Z,30.3
2018-08-19T01:17:03.663Z,30.3
2018-08-19T01:18:05.271Z,30.3
2018-08-19T01:19:06.880Z,30.3
2018-08-19T01:20:08.492Z,29.8
2018-08-19T01:21:09.944Z,30.8
2018-08-19T01:22:11.545Z,29.8
2018-08-19T01:23:12.987Z,29.8
2018-08-19T01:24:14.435Z,30.3
2018-08-19T01:25:15.860Z,30.3
2018-08-19T01:26:17.445Z,29.8
2018-08-19T01:27:19.054Z,30.3
2018-08-19T01:28:20.654Z,29.8
2018-08-19T01:29:22.259Z,29.8
2018-08-19T01:30:23.833Z,30.8
2018-08-19T01:31:25.425Z,30.3
2018-08-19T01:32:27.021Z,30.8
2018-08-19T01:33:28.620Z,30.3
2018-08-19T01:34:30.056Z,30.8
2018-08-19T01:35:31.326Z,30.3
2018-08-19T01:36:32.415Z,30.8
2018-08-19T01:37:33.852Z,31.3
2018-08-19T01:38:35.135Z,31.3
2018-08-19T01:39:36.717Z,30.8
2018-08-19T01:40:38.163Z,31.3
2018-08-19T01:41:39.758Z,31.3
2018-08-19T01:42:41.195Z,30.8
2018-08-19T01:43:42.638Z,31.3
2018-08-19T01:44:43.927Z,31.8
2018-08-19T01:45:45.527Z,31.3
2018-08-19T01:46:51.310Z,31.3
2018-08-19T01:47:52.911Z,32.3
2018-08-19T01:48:54.521Z,31.3
2018-08-19T01:49:55.959Z,31.8
2018-08-19T01:50:57.240Z,32.3
2018-08-19T01:51:58.667Z,31.8
2018-08-19T01:52:59.939Z,31.3
2018-08-19T01:54:01.531Z,31.8
2018-08-19T01:55:03.147Z,31.8
2018-08-19T01:56:04.595Z,32.3
2018-08-19T01:57:06.212Z,32.7
2018-08-19T01:58:07.818Z,32.3
2018-08-19T01:59:09.279Z,32.3
2018-08-19T02:00:10.724Z,32.7
2018-08-19T02:01:12.341Z,32.3
2018-08-19T02:02:13.937Z,32.7
2018-08-19T02:03:15.518Z,32.3
2018-08-19T02:04:17.130Z,32.3
2018-08-19T02:05:18.556Z,33.2
2018-08-19T02:06:20.152Z,32.3
2018-08-19T02:07:21.415Z,32.3
2018-08-19T02:08:22.703Z,33.2
2018-08-19T02:09:24.144Z,32.7
2018-08-19T02:10:25.568Z,32.7
2018-08-19T02:11:27.165Z,32.7
2018-08-19T02:12:28.769Z,32.7
2018-08-19T02:13:30.363Z,33.2
2018-08-19T02:14:31.841Z,32.3
2018-08-19T02:15:33.270Z,32.7
2018-08-19T02:16:34.867Z,32.3
2018-08-19T02:17:36.471Z,32.7
2018-08-19T02:18:38.097Z,32.7
2018-08-19T02:19:39.549Z,32.7
2018-08-19T02:20:41.756Z,32.7
2018-08-19T02:21:43.122Z,32.7
2018-08-19T02:22:44.408Z,33.2
2018-08-19T02:23:46.020Z,32.7
2018-08-19T02:24:47.461Z,32.7
2018-08-19T02:25:49.056Z,33.2
2018-08-19T02:26:50.661Z,32.3
2018-08-19T02:27:52.281Z,32.7
2018-08-19T02:28:53.886Z,32.7
2018-08-19T02:29:55.493Z,32.7
2018-08-19T02:30:56.950Z,32.7
2018-08-19T02:31:58.384Z,32.3
2018-08-19T02:32:59.987Z,32.7
2018-08-19T02:34:01.416Z,32.7
2018-08-19T02:35:03.005Z,32.3
2018-08-19T02:36:04.610Z,33.2
2018-08-19T02:37:06.227Z,32.7
2018-08-19T02:38:07.829Z,32.7
2018-08-19T02:39:09.434Z,32.7
2018-08-19T02:40:10.869Z,32.7
2018-08-19T02:41:12.479Z,32.7
2018-08-19T02:42:13.938Z,32.7
2018-08-19T02:43:15.211Z,33.2
2018-08-19T02:44:16.813Z,32.7
2018-08-19T02:45:18.413Z,32.3
2018-08-19T02:46:20.013Z,32.7
2018-08-19T02:47:21.466Z,32.7
2018-08-19T02:48:22.893Z,32.7
2018-08-19T02:49:24.495Z,32.3
2018-08-19T02:50:26.084Z,32.3
2018-08-19T02:51:27.693Z,32.3
2018-08-19T02:52:29.126Z,32.7
2018-08-19T02:53:30.566Z,32.7
2018-08-19T02:54:32.188Z,32.7
2018-08-19T02:55:33.623Z,32.3
2018-08-19T02:56:35.203Z,32.7
2018-08-19T02:57:36.648Z,32.3
2018-08-19T02:58:38.256Z,33.2
2018-08-19T02:59:39.518Z,32.3
2018-08-19T03:00:41.115Z,32.3
2018-08-19T03:01:42.536Z,31.8
2018-08-19T03:02:43.976Z,32.3
2018-08-19T03:03:45.402Z,31.8
2018-08-19T03:04:47.001Z,32.7
2018-08-19T03:05:48.427Z,32.3
2018-08-19T03:06:50.033Z,32.3
2018-08-19T03:07:51.306Z,32.3
2018-08-19T03:08:52.897Z,31.8
2018-08-19T03:09:54.503Z,32.7
2018-08-19T03:10:56.081Z,32.7
2018-08-19T03:11:57.336Z,31.8
2018-08-19T03:12:58.770Z,31.8
2018-08-19T03:14:00.395Z,31.3
2018-08-19T03:15:02.300Z,31.8
2018-08-19T03:16:04.013Z,32.3
2018-08-19T03:17:05.283Z,31.8
2018-08-19T03:18:06.716Z,31.8
2018-08-19T03:19:08.325Z,31.3
2018-08-19T03:20:09.951Z,31.8
2018-08-19T03:21:11.577Z,31.3
2018-08-19T03:22:13.185Z,31.8
2018-08-19T03:23:14.791Z,31.8
2018-08-19T03:24:16.386Z,31.3
2018-08-19T03:25:17.819Z,31.8
2018-08-19T03:26:19.255Z,31.3
2018-08-19T03:27:20.841Z,31.8
2018-08-19T03:28:22.273Z,31.8
2018-08-19T03:29:23.879Z,32.7
2018-08-19T03:30:25.332Z,31.3
2018-08-19T03:31:26.930Z,31.3
2018-08-19T03:32:28.369Z,30.8
2018-08-19T03:33:30.021Z,31.8
2018-08-19T03:34:31.670Z,31.8
2018-08-19T03:35:33.099Z,31.8
2018-08-19T03:36:34.571Z,31.3
2018-08-19T03:37:36.214Z,32.3
2018-08-19T03:38:37.826Z,31.8
2018-08-19T03:39:39.449Z,32.3
2018-08-19T03:40:41.080Z,32.3
2018-08-19T03:41:42.684Z,32.3
2018-08-19T03:42:44.278Z,32.3
2018-08-19T03:43:45.870Z,31.8
2018-08-19T03:44:47.321Z,31.8
2018-08-19T03:45:48.934Z,32.3
2018-08-19T03:46:50.566Z,32.3
2018-08-19T03:47:51.846Z,32.7
2018-08-19T03:49:08.121Z,32.7
2018-08-19T03:50:09.386Z,32.3
2018-08-19T03:51:10.992Z,32.3
2018-08-19T03:52:12.581Z,32.7
2018-08-19T03:53:14.220Z,33.2
2018-08-19T03:54:15.497Z,32.3
2018-08-19T03:55:17.087Z,32.3
2018-08-19T03:56:18.697Z,32.7
2018-08-19T03:57:20.297Z,32.3
2018-08-19T03:58:21.907Z,32.7
2018-08-19T03:59:23.162Z,32.7
2018-08-19T04:00:24.594Z,33.2
2018-08-19T04:01:26.069Z,32.7
2018-08-19T04:02:27.666Z,33.2
2018-08-19T04:03:29.292Z,32.7
2018-08-19T04:04:30.900Z,32.7
2018-08-19T04:05:32.493Z,32.7
2018-08-19T04:06:33.927Z,32.7
2018-08-19T04:07:35.507Z,32.3
2018-08-19T04:08:37.091Z,31.8
2018-08-19T04:09:38.700Z,32.7
2018-08-19T04:10:40.119Z,32.3
2018-08-19T04:11:41.576Z,32.7
2018-08-19T04:12:43.020Z,32.7
2018-08-19T04:13:44.674Z,32.7
2018-08-19T04:14:46.292Z,32.3
2018-08-19T04:15:47.896Z,32.7
2018-08-19T04:16:49.507Z,32.3
2018-08-19T04:17:51.112Z,32.7
2018-08-19T04:18:52.705Z,32.7
2018-08-19T04:19:54.139Z,33.2
2018-08-19T04:20:55.743Z,32.7
2018-08-19T04:21:56.997Z,32.7
2018-08-19T04:22:58.611Z,32.7
2018-08-19T04:24:00.039Z,32.7
2018-08-19T04:25:01.651Z,32.7
2018-08-19T04:26:03.102Z,32.7
2018-08-19T04:27:04.731Z,32.3
2018-08-19T04:28:06.226Z,32.3
2018-08-19T04:29:07.836Z,32.7
2018-08-19T04:30:09.425Z,32.3
2018-08-19T04:31:11.044Z,31.8
2018-08-19T04:32:12.683Z,32.3
2018-08-19T04:33:14.285Z,32.3
2018-08-19T04:34:15.713Z,32.3
2018-08-19T04:35:17.309Z,32.3
2018-08-19T04:36:18.893Z,32.7
2018-08-19T04:37:20.511Z,32.3
2018-08-19T04:38:22.108Z,32.3
2018-08-19T04:39:23.361Z,31.8
2018-08-19T04:40:24.983Z,32.3
2018-08-19T04:41:26.598Z,32.3
2018-08-19T04:42:28.386Z,32.3
2018-08-19T04:43:29.985Z,32.3
2018-08-19T04:44:31.313Z,31.8
2018-08-19T04:45:32.736Z,32.3
2018-08-19T04:46:34.183Z,32.3
2018-08-19T04:47:35.499Z,32.3
2018-08-19T04:48:36.783Z,31.8
2018-08-19T04:49:38.411Z,32.3
2018-08-19T04:50:40.001Z,32.3
2018-08-19T04:51:41.594Z,32.3
2018-08-19T04:52:43.032Z,32.7
2018-08-19T04:53:44.625Z,32.3
2018-08-19T04:54:46.235Z,31.8
2018-08-19T04:55:47.666Z,31.8
2018-08-19T04:56:49.291Z,31.8
2018-08-19T04:57:50.901Z,31.8
2018-08-19T04:58:52.328Z,31.8
2018-08-19T04:59:53.770Z,31.3
2018-08-19T05:00:55.374Z,31.3
2018-08-19T05:01:57.065Z,32.3
2018-08-19T05:02:58.537Z,32.3
2018-08-19T05:03:59.961Z,32.3
2018-08-19T05:05:01.577Z,31.8
2018-08-19T05:06:03.032Z,32.3
2018-08-19T05:07:04.318Z,31.8
2018-08-19T05:08:06.482Z,32.3
2018-08-19T05:09:07.627Z,31.8
2018-08-19T05:10:09.237Z,31.8
2018-08-19T05:11:10.844Z,32.3
2018-08-19T05:12:12.472Z,31.8
2018-08-19T05:13:13.925Z,31.3
2018-08-19T05:14:15.545Z,31.8
2018-08-19T05:15:17.132Z,31.3
2018-08-19T05:16:18.575Z,31.8
2018-08-19T05:17:19.870Z,30.3
2018-08-19T05:18:21.479Z,31.3
2018-08-19T05:19:22.910Z,31.3
2018-08-19T05:20:24.342Z,31.3
2018-08-19T05:21:25.970Z,31.3
2018-08-19T05:22:27.376Z,31.8
2018-08-19T05:23:29.031Z,31.3
2018-08-19T05:24:30.643Z,31.8
2018-08-19T05:25:32.255Z,31.8
2018-08-19T05:26:33.853Z,30.8
2018-08-19T05:27:35.468Z,31.3
2018-08-19T05:28:37.082Z,31.3
2018-08-19T05:29:38.712Z,31.3
2018-08-19T05:30:40.318Z,31.3
2018-08-19T05:31:42.419Z,31.8
2018-08-19T05:32:44.031Z,30.8
2018-08-19T05:33:45.632Z,31.3
2018-08-19T05:34:47.234Z,30.3
2018-08-19T05:35:48.847Z,30.8
2018-08-19T05:36:49.798Z,31.3
2018-08-19T05:37:51.409Z,31.3
2018-08-19T05:38:52.696Z,30.8
2018-08-19T05:39:53.963Z,31.3
2018-08-19T05:40:55.404Z,30.3
2018-08-19T05:41:56.843Z,31.3
2018-08-19T05:42:58.451Z,31.3
2018-08-19T05:44:00.056Z,30.8
2018-08-19T05:45:01.655Z,31.8
2018-08-19T05:46:03.267Z,31.8
2018-08-19T05:47:05.159Z,31.3
2018-08-19T05:48:06.860Z,31.8
2018-08-19T05:49:08.277Z,31.8
2018-08-19T05:50:09.585Z,30.8
2018-08-19T05:51:11.183Z,31.8
2018-08-19T05:52:12.614Z,31.3
2018-08-19T05:53:14.050Z,32.3
2018-08-19T05:54:15.490Z,31.3
2018-08-19T05:55:17.102Z,31.8
2018-08-19T05:56:18.536Z,32.3
2018-08-19T05:57:20.127Z,31.8
2018-08-19T05:58:21.720Z,31.8
2018-08-19T05:59:23.345Z,32.3
2018-08-19T06:00:24.785Z,31.8
2018-08-19T06:01:26.226Z,31.8
2018-08-19T06:02:27.848Z,32.3
2018-08-19T06:03:29.458Z,32.3
2018-08-19T06:04:31.072Z,32.7
2018-08-19T06:05:32.666Z,32.3
2018-08-19T06:06:34.273Z,32.3
2018-08-19T06:07:36.056Z,32.3
2018-08-19T06:08:37.722Z,32.3
2018-08-19T06:09:39.313Z,32.3
2018-08-19T06:10:40.921Z,32.7
2018-08-19T06:11:42.552Z,32.3
2018-08-19T06:12:44.142Z,32.7
2018-08-19T06:13:45.732Z,32.3
2018-08-19T06:14:47.359Z,32.3
2018-08-19T06:15:49.220Z,32.3
2018-08-19T06:16:50.927Z,31.8
2018-08-19T06:17:52.222Z,32.3
2018-08-19T06:18:53.832Z,33.2
2018-08-19T06:19:55.431Z,31.8
2018-08-19T06:20:57.031Z,31.8
2018-08-19T06:21:58.986Z,32.3
2018-08-19T06:23:00.580Z,31.8
2018-08-19T06:24:02.182Z,32.3
2018-08-19T06:25:03.289Z,32.7
2018-08-19T06:26:04.732Z,32.7
2018-08-19T06:27:06.337Z,32.3
2018-08-19T06:28:07.777Z,32.7
2018-08-19T06:29:09.072Z,32.3
2018-08-19T06:30:10.345Z,31.8
2018-08-19T06:31:12.528Z,32.3
2018-08-19T06:32:14.064Z,32.7
2018-08-19T06:33:15.336Z,32.3
2018-08-19T06:34:16.952Z,31.8
2018-08-19T06:35:18.564Z,32.3
2018-08-19T06:36:20.187Z,32.7
2018-08-19T06:37:21.656Z,32.3
2018-08-19T06:38:23.278Z,32.3
2018-08-19T06:39:24.717Z,32.3
2018-08-19T06:40:26.037Z,32.7
2018-08-19T06:41:27.637Z,32.7
2018-08-19T06:42:29.114Z,31.3
2018-08-19T06:43:30.574Z,32.3
2018-08-19T06:44:32.174Z,31.8
2018-08-19T06:45:33.797Z,32.3
2018-08-19T06:46:35.421Z,31.8
2018-08-19T06:47:37.015Z,31.8
2018-08-19T06:48:38.633Z,31.8
2018-08-19T06:49:40.057Z,32.3
2018-08-19T06:50:41.648Z,32.3
2018-08-19T06:51:43.256Z,31.8
2018-08-19T06:52:44.859Z,31.8
2018-08-19T06:53:46.471Z,31.8
2018-08-19T06:54:47.903Z,31.8
2018-08-19T06:55:49.534Z,32.3
2018-08-19T06:56:50.825Z,31.8
2018-08-19T06:57:52.432Z,31.8
2018-08-19T06:58:54.031Z,32.7
2018-08-19T06:59:55.644Z,31.8
2018-08-19T07:00:57.260Z,32.3
2018-08-19T07:01:58.917Z,32.3
2018-08-19T07:03:00.506Z,31.8
2018-08-19T07:04:02.655Z,31.8
2018-08-19T07:05:04.467Z,32.3
2018-08-19T07:06:06.256Z,31.8
2018-08-19T07:07:07.927Z,31.8
2018-08-19T07:08:09.791Z,37.6
2018-08-19T07:09:11.461Z,41.5
2018-08-19T07:10:13.166Z,43.5
2018-08-19T07:11:14.907Z,44
2018-08-19T07:12:16.443Z,45
2018-08-19T07:13:18.095Z,45
2018-08-19T07:14:19.531Z,44.5
2018-08-19T07:15:20.958Z,45
2018-08-19T07:16:22.513Z,44
2018-08-19T07:17:24.102Z,44
2018-08-19T07:18:25.704Z,44
2018-08-19T07:19:27.153Z,44
2018-08-19T07:20:28.777Z,44
2018-08-19T07:21:30.261Z,43.5
2018-08-19T07:22:31.884Z,43
2018-08-19T07:23:33.233Z,42.5
2018-08-19T07:24:34.854Z,42.5
2018-08-19T07:25:36.466Z,42.5
2018-08-19T07:26:37.749Z,43
2018-08-19T07:27:39.357Z,41.5
2018-08-19T07:28:40.636Z,41.5
2018-08-19T07:29:42.402Z,41.1
2018-08-19T07:30:44.137Z,41.1
2018-08-19T07:31:45.756Z,42
2018-08-19T07:32:47.033Z,41.5
2018-08-19T07:33:48.644Z,41.1
2018-08-19T07:34:50.080Z,41.1
2018-08-19T07:35:51.502Z,40.6
2018-08-19T07:36:53.220Z,40.1
2018-08-19T07:37:55.127Z,40.6
2018-08-19T07:38:56.580Z,40.6
2018-08-19T07:39:58.000Z,40.6
2018-08-19T07:40:59.594Z,40.1
2018-08-19T07:42:01.190Z,39.1
2018-08-19T07:43:02.806Z,39.6
2018-08-19T07:44:04.458Z,39.6
2018-08-19T07:45:06.067Z,39.6
2018-08-19T07:46:07.337Z,38.6
2018-08-19T07:47:08.976Z,38.6
2018-08-19T07:48:10.597Z,38.6
2018-08-19T07:49:11.898Z,38.6
2018-08-19T07:50:13.174Z,38.1
2018-08-19T07:51:14.966Z,37.1
2018-08-19T07:52:16.638Z,38.1
2018-08-19T07:53:18.258Z,37.6
2018-08-19T07:54:19.689Z,38.1
2018-08-19T07:55:21.293Z,37.6
2018-08-19T07:56:22.886Z,38.1
2018-08-19T07:57:24.497Z,37.6
2018-08-19T07:58:26.103Z,38.1
2018-08-19T07:59:27.712Z,37.1
2018-08-19T08:00:29.149Z,37.1
2018-08-19T08:01:31.501Z,36.7
2018-08-19T08:02:33.319Z,37.1
2018-08-19T08:03:34.918Z,37.6
2018-08-19T08:04:36.352Z,37.6
2018-08-19T08:05:37.633Z,37.6
2018-08-19T08:06:38.935Z,37.1
2018-08-19T08:07:40.545Z,36.7
2018-08-19T08:08:42.144Z,37.1
2018-08-19T08:09:43.417Z,37.1
2018-08-19T08:10:44.686Z,37.1
2018-08-19T08:11:46.033Z,37.1
2018-08-19T08:12:47.464Z,37.1
2018-08-19T08:13:49.268Z,36.7
2018-08-19T08:14:50.372Z,37.1
2018-08-19T08:15:51.819Z,36.7
2018-08-19T08:16:53.251Z,37.1
2018-08-19T08:17:54.904Z,37.1
2018-08-19T08:18:56.506Z,37.1
2018-08-19T08:19:57.779Z,36.7
2018-08-19T08:20:59.382Z,36.7
2018-08-19T08:22:00.988Z,36.7
2018-08-19T08:23:02.613Z,36.7
2018-08-19T08:24:04.058Z,36.7
2018-08-19T08:25:05.682Z,36.2
2018-08-19T08:26:07.276Z,36.7
2018-08-19T08:27:08.870Z,36.2
2018-08-19T08:28:10.474Z,36.7
2018-08-19T08:29:12.400Z,36.2
2018-08-19T08:30:14.079Z,37.1
2018-08-19T08:31:15.888Z,36.2
2018-08-19T08:32:17.566Z,36.2
2018-08-19T08:33:19.025Z,35.7
2018-08-19T08:34:20.602Z,36.7
2018-08-19T08:35:22.338Z,35.7
2018-08-19T08:36:23.781Z,36.2
2018-08-19T08:37:25.067Z,35.7
2018-08-19T08:38:26.200Z,35.7
2018-08-19T08:39:27.848Z,35.7
2018-08-19T08:40:29.518Z,36.2
2018-08-19T08:41:31.002Z,35.7
2018-08-19T08:42:32.614Z,35.7
2018-08-19T08:43:34.235Z,35.7
2018-08-19T08:44:35.992Z,35.7
2018-08-19T08:45:37.619Z,35.7
2018-08-19T08:46:38.709Z,35.7
2018-08-19T08:47:41.068Z,35.7
2018-08-19T08:48:42.257Z,35.7
2018-08-19T08:49:43.855Z,35.7
2018-08-19T08:50:45.319Z,35.7
2018-08-19T08:51:46.991Z,35.7
2018-08-19T08:52:48.635Z,35.2
2018-08-19T08:53:50.099Z,34.7
2018-08-19T08:54:51.535Z,34.7
2018-08-19T08:55:53.146Z,35.7
2018-08-19T08:56:54.739Z,35.2
2018-08-19T08:57:56.170Z,35.2
2018-08-19T08:58:57.609Z,35.7
2018-08-19T08:59:59.210Z,35.2
2018-08-19T09:01:00.807Z,34.7
2018-08-19T09:02:02.400Z,34.7
2018-08-19T09:03:04.158Z,34.7
2018-08-19T09:04:05.824Z,34.7
2018-08-19T09:05:07.417Z,34.2
2018-08-19T09:06:09.042Z,34.7
2018-08-19T09:07:10.495Z,35.2
2018-08-19T09:08:11.928Z,35.2
2018-08-19T09:09:13.548Z,34.2
2018-08-19T09:10:15.163Z,35.2
2018-08-19T09:11:16.453Z,34.7
2018-08-19T09:12:18.068Z,34.2
2018-08-19T09:13:19.707Z,34.7
2018-08-19T09:14:21.148Z,35.2
2018-08-19T09:15:22.762Z,34.7
2018-08-19T09:16:24.363Z,34.2
2018-08-19T09:17:25.983Z,34.2
2018-08-19T09:18:27.415Z,35.2
2018-08-19T09:19:28.851Z,34.7
2018-08-19T09:20:30.119Z,34.7
2018-08-19T09:21:31.565Z,34.2
2018-08-19T09:22:33.017Z,34.2
2018-08-19T09:23:34.643Z,33.7
2018-08-19T09:24:35.937Z,34.2
2018-08-19T09:25:37.555Z,33.7
2018-08-19T09:26:39.233Z,33.7
2018-08-19T09:27:40.890Z,33.7
2018-08-19T09:28:42.368Z,34.2
2018-08-19T09:29:43.971Z,34.2
2018-08-19T09:30:45.592Z,34.2
2018-08-19T09:31:47.245Z,33.7
2018-08-19T09:32:48.783Z,34.2
2018-08-19T09:33:50.417Z,34.2
2018-08-19T09:34:52.027Z,33.2
2018-08-19T09:35:53.468Z,34.2
2018-08-19T09:36:55.083Z,34.2
2018-08-19T09:37:56.690Z,34.2
2018-08-19T09:38:58.303Z,33.7
2018-08-19T09:39:59.928Z,33.7
2018-08-19T09:41:01.564Z,34.2
2018-08-19T09:42:02.848Z,33.2
2018-08-19T09:43:04.442Z,33.2
2018-08-19T09:44:06.045Z,33.7
2018-08-19T09:45:07.344Z,33.2
2018-08-19T09:46:08.962Z,33.2
2018-08-19T09:47:10.416Z,33.2
2018-08-19T09:48:12.034Z,33.7
2018-08-19T09:49:13.341Z,33.7
2018-08-19T09:50:15.077Z,33.2
2018-08-19T09:51:16.807Z,33.2
2018-08-19T09:52:18.447Z,33.2
2018-08-19T09:53:19.878Z,32.7
2018-08-19T09:54:21.324Z,33.2
2018-08-19T09:55:22.788Z,33.2
2018-08-19T09:56:24.441Z,33.2
2018-08-19T09:57:25.908Z,33.2
2018-08-19T09:58:27.582Z,33.2
2018-08-19T09:59:29.193Z,33.2
2018-08-19T10:00:30.478Z,32.3
2018-08-19T10:01:32.378Z,32.7
2018-08-19T10:02:33.961Z,32.3
2018-08-19T10:03:35.582Z,32.3
2018-08-19T10:04:37.198Z,33.2
2018-08-19T10:05:38.641Z,32.3
2018-08-19T10:06:40.078Z,32.7
2018-08-19T10:07:41.734Z,31.8
2018-08-19T10:08:43.435Z,32.7
2018-08-19T10:09:44.904Z,32.7
2018-08-19T10:10:46.545Z,32.7
2018-08-19T10:11:47.986Z,33.2
2018-08-19T10:12:49.424Z,33.7
2018-08-19T10:13:51.061Z,32.7
2018-08-19T10:14:52.519Z,33.2
2018-08-19T10:15:54.126Z,33.2
2018-08-19T10:16:55.579Z,33.2
2018-08-19T10:17:57.042Z,33.7
2018-08-19T10:18:58.495Z,33.7
2018-08-19T10:19:59.964Z,33.2
2018-08-19T10:21:01.421Z,32.7
2018-08-19T10:22:02.919Z,33.7
2018-08-19T10:23:04.346Z,33.2
2018-08-19T10:24:05.629Z,33.7
2018-08-19T10:25:07.070Z,33.2
2018-08-19T10:26:08.685Z,33.2
2018-08-19T10:27:10.146Z,33.7
2018-08-19T10:28:11.589Z,33.2
2018-08-19T10:29:13.046Z,32.7
2018-08-19T10:30:14.723Z,33.2
2018-08-19T10:31:16.480Z,33.2
2018-08-19T10:32:18.100Z,33.2
2018-08-19T10:33:19.684Z,33.2
2018-08-19T10:34:21.308Z,33.2
2018-08-19T10:35:22.753Z,33.2
2018-08-19T10:36:24.368Z,33.2
2018-08-19T10:37:25.973Z,33.2
2018-08-19T10:38:27.594Z,33.7
2018-08-19T10:39:29.230Z,33.7
2018-08-19T10:40:30.827Z,33.7
2018-08-19T10:41:32.465Z,33.2
2018-08-19T10:42:33.914Z,33.2
2018-08-19T10:43:35.578Z,33.7
2018-08-19T10:44:37.195Z,33.7
2018-08-19T10:45:38.847Z,34.2
2018-08-19T10:46:40.451Z,33.2
2018-08-19T10:47:41.890Z,33.7
2018-08-19T10:48:43.326Z,33.2
2018-08-19T10:49:44.925Z,34.2
2018-08-19T10:50:46.534Z,33.2
2018-08-19T10:51:47.985Z,34.2
2018-08-19T10:52:49.598Z,33.7
2018-08-19T10:53:51.042Z,33.7
2018-08-19T10:54:52.655Z,33.2
2018-08-19T10:55:54.260Z,33.2
2018-08-19T10:56:55.870Z,33.2
2018-08-19T10:57:57.495Z,33.2
2018-08-19T10:58:59.105Z,32.7
2018-08-19T11:00:00.570Z,33.7
2018-08-19T11:01:02.041Z,33.2
2018-08-19T11:02:03.473Z,33.7
2018-08-19T11:03:05.096Z,33.7
2018-08-19T11:04:06.581Z,33.7
2018-08-19T11:05:08.032Z,33.2
2018-08-19T11:06:09.632Z,34.2
2018-08-19T11:07:11.246Z,33.2
2018-08-19T11:08:12.874Z,34.2
2018-08-19T11:09:14.315Z,33.7
2018-08-19T11:10:15.956Z,33.2
2018-08-19T11:11:17.560Z,32.7
2018-08-19T11:12:19.183Z,33.2
2018-08-19T11:13:21.076Z,33.2
2018-08-19T11:14:22.552Z,33.2
2018-08-19T11:15:24.149Z,33.2
2018-08-19T11:16:25.773Z,33.7
2018-08-19T11:17:27.223Z,33.7
2018-08-19T11:18:28.837Z,33.2
2018-08-19T11:19:30.314Z,33.7
2018-08-19T11:20:31.980Z,33.2
2018-08-19T11:21:33.594Z,33.7
2018-08-19T11:22:35.204Z,33.2
2018-08-19T11:23:36.640Z,33.2
2018-08-19T11:24:38.303Z,33.7
2018-08-19T11:25:39.936Z,33.2
2018-08-19T11:26:41.399Z,33.2
2018-08-19T11:27:43.129Z,32.3
2018-08-19T11:28:44.777Z,32.7
2018-08-19T11:29:46.048Z,33.2
2018-08-19T11:30:47.493Z,33.2
2018-08-19T11:31:48.928Z,33.2
2018-08-19T11:32:50.195Z,33.2
2018-08-19T11:33:52.142Z,33.2
2018-08-19T11:34:53.830Z,32.7
2018-08-19T11:35:55.266Z,32.7
2018-08-19T11:36:56.539Z,33.2
2018-08-19T11:37:58.133Z,32.7
2018-08-19T11:38:59.585Z,33.2
2018-08-19T11:40:01.187Z,32.7
2018-08-19T11:41:02.486Z,32.7
2018-08-19T11:42:03.949Z,32.3
2018-08-19T11:43:05.549Z,33.2
2018-08-19T11:44:07.184Z,32.7
2018-08-19T11:45:08.802Z,32.7
2018-08-19T11:46:10.397Z,32.7
2018-08-19T11:47:11.999Z,32.3
2018-08-19T11:48:13.431Z,32.3
2018-08-19T11:49:15.032Z,32.7
2018-08-19T11:50:16.476Z,32.3
2018-08-19T11:51:17.803Z,32.7
2018-08-19T11:52:19.077Z,31.8
2018-08-19T11:53:20.676Z,32.7
2018-08-19T11:54:22.107Z,32.7
2018-08-19T11:55:24.216Z,32.3
2018-08-19T11:56:26.025Z,32.3
2018-08-19T11:57:27.645Z,32.3
2018-08-19T11:58:29.105Z,32.3
2018-08-19T11:59:30.706Z,31.8
2018-08-19T12:00:32.320Z,32.7
2018-08-19T12:01:33.920Z,32.3
2018-08-19T12:02:35.547Z,32.3
2018-08-19T12:03:37.168Z,32.7
2018-08-19T12:04:38.788Z,32.7
2018-08-19T12:05:40.406Z,32.7
2018-08-19T12:06:42.027Z,32.3
2018-08-19T12:07:43.632Z,32.3
2018-08-19T12:08:45.255Z,32.7
2018-08-19T12:09:47.587Z,33.2
2018-08-19T12:10:49.445Z,32.3
2018-08-19T12:11:51.076Z,32.7
2018-08-19T12:12:52.521Z,32.7
2018-08-19T12:13:54.180Z,32.3
2018-08-19T12:14:55.622Z,32.7
2018-08-19T12:15:57.058Z,33.2
2018-08-19T12:16:59.036Z,32.3
2018-08-19T12:18:00.641Z,32.7
2018-08-19T12:19:02.242Z,32.7
2018-08-19T12:20:03.711Z,34.2
2018-08-19T12:21:05.338Z,33.7
2018-08-19T12:22:06.954Z,32.3
2018-08-19T12:23:08.546Z,33.2
2018-08-19T12:24:10.137Z,33.7
2018-08-19T12:25:11.569Z,33.2
2018-08-19T12:26:13.175Z,32.7
2018-08-19T12:27:14.907Z,32.7
2018-08-19T12:28:16.572Z,33.2
2018-08-19T12:29:17.842Z,33.2
2018-08-19T12:30:19.466Z,33.2
2018-08-19T12:31:21.086Z,33.2
2018-08-19T12:32:22.702Z,32.7
2018-08-19T12:33:24.316Z,33.2
2018-08-19T12:34:25.836Z,33.7
2018-08-19T12:35:27.295Z,33.2
2018-08-19T12:36:28.897Z,32.7
2018-08-19T12:37:31.070Z,32.7
2018-08-19T12:38:32.870Z,33.2
2018-08-19T12:39:34.467Z,33.2
2018-08-19T12:40:36.075Z,33.2
2018-08-19T12:41:37.523Z,33.2
2018-08-19T12:42:39.136Z,33.7
2018-08-19T12:43:40.587Z,33.2
2018-08-19T12:44:42.406Z,32.7
2018-08-19T12:45:44.079Z,33.2
2018-08-19T12:46:45.353Z,33.2
2018-08-19T12:47:46.953Z,32.7
2018-08-19T12:48:48.391Z,33.2
2018-08-19T12:49:50.003Z,33.2
2018-08-19T12:50:51.631Z,32.7
2018-08-19T12:51:53.233Z,33.2
2018-08-19T12:52:54.838Z,32.7
2018-08-19T12:53:56.448Z,32.7
2018-08-19T12:54:58.052Z,33.2
2018-08-19T12:56:00.184Z,33.2
2018-08-19T12:57:01.637Z,33.2
2018-08-19T12:58:03.253Z,33.7
2018-08-19T12:59:04.839Z,32.7
2018-08-19T13:00:06.273Z,33.2
2018-08-19T13:01:07.890Z,32.7
2018-08-19T13:02:09.168Z,32.7
2018-08-19T13:03:10.789Z,33.2
2018-08-19T13:04:12.236Z,33.7
2018-08-19T13:05:13.697Z,32.7
2018-08-19T13:06:15.296Z,32.7
2018-08-19T13:07:16.905Z,33.2
2018-08-19T13:08:18.337Z,32.3
2018-08-19T13:09:19.951Z,33.2
2018-08-19T13:10:21.588Z,33.2
2018-08-19T13:11:23.200Z,32.7
2018-08-19T13:12:24.467Z,33.2
2018-08-19T13:13:26.090Z,32.7
2018-08-19T13:14:27.683Z,32.7
2018-08-19T13:15:29.345Z,32.3
2018-08-19T13:16:30.647Z,32.7
2018-08-19T13:17:32.276Z,33.2
2018-08-19T13:18:33.882Z,32.7
2018-08-19T13:19:35.493Z,32.3
2018-08-19T13:20:36.775Z,32.7
2018-08-19T13:21:38.408Z,33.2
2018-08-19T13:22:40.112Z,33.2
2018-08-19T13:23:41.814Z,32.7
2018-08-19T13:24:43.425Z,32.7
2018-08-19T13:25:44.884Z,32.3
2018-08-19T13:26:46.515Z,33.2
2018-08-19T13:27:47.969Z,32.3
2018-08-19T13:28:49.434Z,32.7
2018-08-19T13:29:51.047Z,32.7
2018-08-19T13:30:52.646Z,33.2
2018-08-19T13:31:54.275Z,32.7
2018-08-19T13:32:55.563Z,32.7
2018-08-19T13:33:57.050Z,32.7
2018-08-19T13:34:58.680Z,32.7
2018-08-19T13:36:00.305Z,33.2
2018-08-19T13:37:01.737Z,32.3
2018-08-19T13:38:03.355Z,32.3
2018-08-19T13:39:04.968Z,32.3
2018-08-19T13:40:06.583Z,31.8